createdAt,value
2018-09-17T00:02:59.587Z,100760.99
2018-09-17T00:08:03.099Z,100766.37
2018-09-17T00:13:06.825Z,100760.62
2018-09-17T00:18:10.630Z,100762.47
2018-09-17T00:23:14.119Z,100769.07
2018-09-17T00:28:17.572Z,100774.69
2018-09-17T00:33:21.050Z,100761.98
2018-09-17T00:38:24.576Z,100763.58
2018-09-17T00:43:28.061Z,100770.54
2018-09-17T00:48:31.625Z,100762.84
2018-09-17T00:53:35.185Z,100773.02
2018-09-17T00:58:38.631Z,100773.83
2018-09-17T01:03:42.100Z,100767.71
2018-09-17T01:08:45.576Z,100768.42
2018-09-17T01:13:49.321Z,100771.02
2018-09-17T01:18:52.776Z,100773.59
2018-09-17T01:23:56.226Z,100772.83
2018-09-17T01:28:59.675Z,100781.16
2018-09-17T01:34:03.138Z,100777.38
2018-09-17T01:39:08.531Z,100782.13
2018-09-17T01:44:11.995Z,100793.50
2018-09-17T01:49:15.593Z,100793.02
2018-09-17T01:54:19.084Z,100789.20
2018-09-17T01:59:22.602Z,100784.07
2018-09-17T02:04:26.059Z,100785.30
2018-09-17T02:09:29.524Z,100788.20
2018-09-17T02:14:32.992Z,100785.40
2018-09-17T02:19:36.799Z,100777.94
2018-09-17T02:24:40.653Z,100781.70
2018-09-17T02:29:44.096Z,100784.64
2018-09-17T02:34:47.547Z,100780.48
2018-09-17T02:39:51.016Z,100782.69
2018-09-17T02:44:54.459Z,100791.09
2018-09-17T02:49:57.894Z,100785.95
2018-09-17T02:55:01.352Z,100777.16
2018-09-17T03:00:06.265Z,100774.56
2018-09-17T03:05:09.952Z,100772.94
2018-09-17T03:10:13.469Z,100776.60
2018-09-17T03:15:28.234Z,100786.14
2018-09-17T03:20:31.939Z,100785.77
2018-09-17T03:25:35.390Z,100796.73
2018-09-17T03:30:38.848Z,100803.58
2018-09-17T03:35:42.332Z,100805.91
2018-09-17T03:40:45.771Z,100813.36
2018-09-17T03:45:49.245Z,100818.67
2018-09-17T03:50:52.690Z,100816.66
2018-09-17T03:55:56.185Z,100808.34
2018-09-17T04:01:00.303Z,100798.59
2018-09-17T04:06:03.729Z,100789.59
2018-09-17T04:11:07.159Z,100784.38
2018-09-17T04:16:10.582Z,100783.16
2018-09-17T04:21:14.077Z,100787.25
2018-09-17T04:26:17.515Z,100787.77
2018-09-17T04:31:20.950Z,100789.22
2018-09-17T04:36:24.421Z,100785.59
2018-09-17T04:41:27.931Z,100795.20
2018-09-17T04:46:31.371Z,100806.24
2018-09-17T04:51:34.825Z,100798.34
2018-09-17T04:56:38.258Z,100805.98
2018-09-17T05:01:41.755Z,100807.34
2018-09-17T05:06:45.618Z,100810.28
2018-09-17T05:11:49.063Z,100819.28
2018-09-17T05:16:52.503Z,100822.39
2018-09-17T05:21:55.967Z,100830.56
2018-09-17T05:26:59.432Z,100831.35
2018-09-17T05:32:02.883Z,100831.75
2018-09-17T05:37:06.380Z,100832.98
2018-09-17T05:42:09.863Z,100836.63
2018-09-17T05:47:13.320Z,100839.81
2018-09-17T05:52:16.766Z,100825.55
2018-09-17T05:57:20.231Z,100829.31
2018-09-17T06:02:23.676Z,100828.95
2018-09-17T06:07:27.154Z,100835.60
2018-09-17T06:12:30.643Z,100832.74
2018-09-17T06:17:34.181Z,100830.65
2018-09-17T06:22:37.626Z,100825.42
2018-09-17T06:27:41.079Z,100824.23
2018-09-17T06:32:44.532Z,100824.95
2018-09-17T06:37:47.971Z,100825.47
2018-09-17T06:42:51.419Z,100824.72
2018-09-17T06:47:54.886Z,100819.58
2018-09-17T06:52:58.327Z,100835.55
2018-09-17T06:58:02.018Z,100840.38
2018-09-17T07:03:05.492Z,100844.19
2018-09-17T07:08:08.982Z,100836.22
2018-09-17T07:13:12.435Z,100841.62
2018-09-17T07:18:15.977Z,100838.42
2018-09-17T07:23:19.454Z,100835.48
2018-09-17T07:28:23.252Z,100830.68
2018-09-17T07:33:26.691Z,100817.91
2018-09-17T07:38:30.168Z,100823.50
2018-09-17T07:43:33.642Z,100831.48
2018-09-17T07:48:37.104Z,100821.97
2018-09-17T07:53:40.543Z,100817.94
2018-09-17T07:58:44.047Z,100814.67
2018-09-17T08:03:47.513Z,100814.25
2018-09-17T08:08:50.954Z,100806.95
2018-09-17T08:13:54.434Z,100806.63
2018-09-17T08:18:57.891Z,100804.38
2018-09-17T08:24:01.331Z,100805.34
2018-09-17T08:29:04.797Z,100800.30
2018-09-17T08:34:08.273Z,100802.06
2018-09-17T08:39:13.345Z,100784.45
2018-09-17T08:44:16.804Z,100781.86
2018-09-17T08:49:20.252Z,100805.12
2018-09-17T08:54:23.697Z,100799.02
2018-09-17T08:59:32.491Z,100794.75
2018-09-17T09:04:41.312Z,100794.48
2018-09-17T09:09:44.783Z,100786.73
2018-09-17T09:14:52.374Z,100785.45
2018-09-17T09:19:55.859Z,100773.52
2018-09-17T09:24:59.322Z,100772.09
2018-09-17T09:30:02.873Z,100762.52
2018-09-17T09:35:06.316Z,100779.75
2018-09-17T09:40:09.782Z,100771.80
2018-09-17T09:45:13.589Z,100770.13
2018-09-17T09:50:17.227Z,100764.29
2018-09-17T09:55:20.691Z,100761.27
2018-09-17T10:00:29.612Z,100764.09
2018-09-17T10:05:33.060Z,100765.83
2018-09-17T10:10:41.821Z,100770.50
2018-09-17T10:15:48.358Z,100762.89
2018-09-17T10:20:51.805Z,100763.63
2018-09-17T10:25:55.272Z,100761.58
2018-09-17T10:30:58.755Z,100745.03
2018-09-17T10:36:02.261Z,100747.85
2018-09-17T10:41:05.785Z,100749.81
2018-09-17T10:46:09.259Z,100739.56
2018-09-17T10:51:12.743Z,100734.31
2018-09-17T10:56:16.227Z,100727.34
2018-09-17T11:01:19.790Z,100724.40
2018-09-17T11:06:23.268Z,100714.95
2018-09-17T11:11:26.721Z,100706.90
2018-09-17T11:16:30.205Z,100706.39
2018-09-17T11:21:33.667Z,100706.30
2018-09-17T11:26:37.156Z,100701.13
2018-09-17T11:31:40.624Z,100696.63
2018-09-17T11:36:44.132Z,100693.78
2018-09-17T11:41:47.600Z,100690.75
2018-09-17T11:46:51.059Z,100685.95
2018-09-17T11:51:54.559Z,100681.55
2018-09-17T11:56:58.023Z,100671.88
2018-09-17T12:02:04.580Z,100671.02
2018-09-17T12:07:13.394Z,100659.98
2018-09-17T12:12:16.834Z,100652.80
2018-09-17T12:17:20.298Z,100657.59
2018-09-17T12:22:23.798Z,100655.00
2018-09-17T12:27:27.271Z,100650.99
2018-09-17T12:32:30.716Z,100648.00
2018-09-17T12:37:34.188Z,100652.08
2018-09-17T12:42:37.634Z,100643.14
2018-09-17T12:47:41.144Z,100645.48
2018-09-17T12:52:44.620Z,100641.89
2018-09-17T12:57:48.062Z,100635.52
2018-09-17T13:02:51.531Z,100635.30
2018-09-17T13:07:54.977Z,100620.48
2018-09-17T13:12:58.416Z,100626.09
2018-09-17T13:18:01.899Z,100618.88
2018-09-17T13:23:05.335Z,100623.66
2018-09-17T13:28:08.828Z,100611.95
2018-09-17T13:33:12.275Z,100605.48
2018-09-17T13:38:15.752Z,100607.47
2018-09-17T13:43:19.225Z,100605.49
2018-09-17T13:48:22.722Z,100598.39
2018-09-17T13:53:26.199Z,100590.91
2018-09-17T13:58:29.660Z,100592.74
2018-09-17T14:03:33.102Z,100588.34
2018-09-17T14:08:36.576Z,100584.44
2018-09-17T14:13:40.058Z,100583.22
2018-09-17T14:18:43.531Z,100588.25
2018-09-17T14:23:46.959Z,100584.30
2018-09-17T14:28:50.429Z,100576.48
2018-09-17T14:33:53.917Z,100570.97
2018-09-17T14:38:57.372Z,100563.65
2018-09-17T14:44:01.003Z,100557.16
2018-09-17T14:49:04.465Z,100555.17
2018-09-17T14:54:07.920Z,100550.78
2018-09-17T14:59:11.426Z,100549.33
2018-09-17T15:04:14.902Z,100552.61
2018-09-17T15:09:18.395Z,100547.94
2018-09-17T15:14:22.158Z,100547.44
2018-09-17T15:19:25.626Z,100547.07
2018-09-17T15:24:29.108Z,100538.23
2018-09-17T15:29:32.553Z,100536.44
2018-09-17T15:34:36.128Z,100535.09
2018-09-17T15:39:39.598Z,100530.20
2018-09-17T15:44:43.053Z,100531.91
2018-09-17T15:49:46.646Z,100527.96
2018-09-17T15:54:50.069Z,100525.73
2018-09-17T15:59:53.543Z,100518.22
2018-09-17T16:04:57.011Z,100516.58
2018-09-17T16:10:00.553Z,100518.37
2018-09-17T16:15:04.068Z,100510.59
2018-09-17T16:20:07.657Z,100505.64
2018-09-17T16:25:11.191Z,100499.75
2018-09-17T16:30:14.635Z,100498.19
2018-09-17T16:35:18.092Z,100496.16
2018-09-17T16:40:21.643Z,100499.84
2018-09-17T16:45:25.147Z,100501.69
2018-09-17T16:50:28.756Z,100502.38
2018-09-17T16:55:32.271Z,100500.17
2018-09-17T17:00:35.712Z,100503.50
2018-09-17T17:05:39.174Z,100501.77
2018-09-17T17:10:42.724Z,100503.22
2018-09-17T17:15:49.000Z,100511.80
2018-09-17T17:20:52.448Z,100513.02
2018-09-17T17:25:56.091Z,100521.45
2018-09-17T17:30:59.571Z,100519.47
2018-09-17T17:36:03.037Z,100529.27
2018-09-17T17:41:07.878Z,100516.56
2018-09-17T17:46:11.438Z,100520.91
2018-09-17T17:51:14.798Z,100527.90
2018-09-17T17:56:18.303Z,100531.03
2018-09-17T18:01:22.048Z,100507.98
2018-09-17T18:06:26.488Z,100537.64
2018-09-17T18:11:29.955Z,100534.17
2018-09-17T18:16:33.440Z,100543.08
2018-09-17T18:21:37.050Z,100544.02
2018-09-17T18:26:40.629Z,100540.74
2018-09-17T18:31:44.170Z,100538.13
2018-09-17T18:36:47.680Z,100539.45
2018-09-17T18:41:51.162Z,100537.88
2018-09-17T18:46:54.631Z,100547.48
2018-09-17T18:51:58.108Z,100546.36
2018-09-17T18:57:01.758Z,100547.17
2018-09-17T19:02:05.395Z,100544.06
2018-09-17T19:07:08.890Z,100541.31
2018-09-17T19:12:12.536Z,100538.84
2018-09-17T19:17:21.045Z,100538.55
2018-09-17T19:22:29.860Z,100538.90
2018-09-17T19:27:39.556Z,100535.29
2018-09-17T19:32:43.259Z,100537.24
2018-09-17T19:37:52.311Z,100532.70
2018-09-17T19:42:55.834Z,100531.14
2018-09-17T19:47:59.588Z,100528.55
2018-09-17T19:53:03.183Z,100530.39
2018-09-17T19:58:12.674Z,100528.06
2018-09-17T20:03:16.170Z,100530.90
2018-09-17T20:08:19.767Z,100529.77
2018-09-17T20:13:23.264Z,100533.45
2018-09-17T20:18:26.764Z,100531.20
2018-09-17T20:23:30.267Z,100533.17
2018-09-17T20:28:33.721Z,100531.47
2018-09-17T20:33:37.354Z,100530.77
2018-09-17T20:38:40.875Z,100526.86
2018-09-17T20:43:44.335Z,100526.36
2018-09-17T20:48:48.644Z,100517.92
2018-09-17T20:53:52.116Z,100510.40
2018-09-17T20:58:55.678Z,100511.75
2018-09-17T21:03:59.130Z,100512.24
2018-09-17T21:09:02.846Z,100516.42
2018-09-17T21:14:06.818Z,100519.61
2018-09-17T21:19:10.428Z,100508.48
2018-09-17T21:24:13.819Z,100517.28
2018-09-17T21:29:17.341Z,100521.81
2018-09-17T21:34:20.839Z,100524.78
2018-09-17T21:39:24.364Z,100510.59
2018-09-17T21:44:27.850Z,100512.52
2018-09-17T21:49:31.374Z,100505.14
2018-09-17T21:54:34.889Z,100509.83
2018-09-17T21:59:38.373Z,100502.81
2018-09-17T22:04:41.907Z,100499.75
2018-09-17T22:09:45.437Z,100499.39
2018-09-17T22:14:48.975Z,100503.00
2018-09-17T22:19:52.468Z,100497.61
2018-09-17T22:24:55.997Z,100502.61
2018-09-17T22:29:59.471Z,100494.92
2018-09-17T22:35:02.974Z,100496.52
2018-09-17T22:40:06.677Z,100489.28
2018-09-17T22:45:10.230Z,100494.67
2018-09-17T22:50:13.748Z,100488.78
2018-09-17T22:55:17.285Z,100494.80
2018-09-17T23:00:20.791Z,100487.85
2018-09-17T23:05:24.270Z,100487.98
2018-09-17T23:10:27.811Z,100483.17
2018-09-17T23:15:31.311Z,100473.66
2018-09-17T23:20:34.790Z,100477.42
2018-09-17T23:25:38.232Z,100480.13
2018-09-17T23:30:41.718Z,100476.93
2018-09-17T23:35:45.268Z,100475.09
2018-09-17T23:40:48.734Z,100474.45
2018-09-17T23:45:52.179Z,100471.32
2018-09-17T23:50:55.658Z,100465.08
2018-09-17T23:55:59.132Z,100466.42
